sensor_id;sensor_type;location;lat;lon;timestamp;pressure;altitude;pressure_sealevel;temperature;humidity
82668;BME280;72691;51.374;-0.176;2024-03-06T00:00:01;101507.76;;;5.40;62.55
82668;BME280;72691;51.374;-0.176;2024-03-06T00:02:25;101508.71;;;7.79;56.26
82668;BME280;72691;51.374;-0.176;2024-03-06T00:04:51;101509.63;;;7.84;55.37
82668;BME280;72691;51.374;-0.176;2024-03-06T00:07:17;101511.52;;;7.51;54.73
82668;BME280;72691;51.374;-0.176;2024-03-06T00:09:42;101512.07;;;6.55;57.28
82668;BME280;72691;51.374;-0.176;2024-03-06T00:12:07;101511.52;;;7.56;55.41
82668;BME280;72691;51.374;-0.176;2024-03-06T00:14:34;101513.79;;;7.56;54.50
82668;BME280;72691;51.374;-0.176;2024-03-06T00:16:58;101513.74;;;7.45;55.43
82668;BME280;72691;51.374;-0.176;2024-03-06T00:19:24;101518.55;;;8.41;53.11
82668;BME280;72691;51.374;-0.176;2024-03-06T00:21:50;101519.11;;;7.44;55.04
82668;BME280;72691;51.374;-0.176;2024-03-06T00:24:15;101518.24;;;7.43;54.80
82668;BME280;72691;51.374;-0.176;2024-03-06T00:26:40;101520.76;;;6.43;56.85
82668;BME280;72691;51.374;-0.176;2024-03-06T00:29:05;101521.67;;;6.48;57.70
82668;BME280;72691;51.374;-0.176;2024-03-06T00:31:31;101523.02;;;7.16;55.82
82668;BME280;72691;51.374;-0.176;2024-03-06T00:33:56;101524.43;;;8.01;53.43
82668;BME280;72691;51.374;-0.176;2024-03-06T00:36:22;101528.86;;;6.55;56.08
82668;BME280;72691;51.374;-0.176;2024-03-06T00:38:47;101528.01;;;7.90;52.98
82668;BME280;72691;51.374;-0.176;2024-03-06T00:41:12;101533.97;;;7.21;56.37
82668;BME280;72691;51.374;-0.176;2024-03-06T00:43:38;101533.53;;;7.63;54.75
82668;BME280;72691;51.374;-0.176;2024-03-06T00:46:04;101538.87;;;6.55;55.93
82668;BME280;72691;51.374;-0.176;2024-03-06T00:48:29;101538.17;;;8.12;54.54
82668;BME280;72691;51.374;-0.176;2024-03-06T00:50:56;101534.50;;;8.70;53.26
82668;BME280;72691;51.374;-0.176;2024-03-06T00:53:20;101534.89;;;6.91;55.26
82668;BME280;72691;51.374;-0.176;2024-03-06T00:55:45;101537.81;;;7.33;54.89
82668;BME280;72691;51.374;-0.176;2024-03-06T00:58:11;101537.21;;;7.63;53.69
82668;BME280;72691;51.374;-0.176;2024-03-06T01:00:37;101541.84;;;6.47;56.91
82668;BME280;72691;51.374;-0.176;2024-03-06T01:03:03;101541.60;;;7.09;55.50
82668;BME280;72691;51.374;-0.176;2024-03-06T01:05:27;101538.33;;;7.31;54.50
82668;BME280;72691;51.374;-0.176;2024-03-06T01:07:53;101544.66;;;7.39;53.78
82668;BME280;72691;51.374;-0.176;2024-03-06T01:10:18;101547.10;;;7.58;53.13
82668;BME280;72691;51.374;-0.176;2024-03-06T01:12:43;101545.19;;;7.93;52.68
82668;BME280;72691;51.374;-0.176;2024-03-06T01:15:09;101540.83;;;9.18;49.79
82668;BME280;72691;51.374;-0.176;2024-03-06T01:17:34;101543.62;;;8.17;51.43
82668;BME280;72691;51.374;-0.176;2024-03-06T01:19:59;101544.62;;;7.39;52.88
82668;BME280;72691;51.374;-0.176;2024-03-06T01:22:26;101540.92;;;6.66;54.38
82668;BME280;72691;51.374;-0.176;2024-03-06T01:24:51;101537.89;;;7.07;54.07
82668;BME280;72691;51.374;-0.176;2024-03-06T01:27:17;101536.66;;;7.49;53.87
82668;BME280;72691;51.374;-0.176;2024-03-06T01:29:42;101535.57;;;8.11;51.92
82668;BME280;72691;51.374;-0.176;2024-03-06T01:32:08;101537.59;;;8.09;51.48
82668;BME280;72691;51.374;-0.176;2024-03-06T01:34:33;101540.46;;;8.58;51.81
82668;BME280;72691;51.374;-0.176;2024-03-06T01:36:58;101542.90;;;9.01;49.98
82668;BME280;72691;51.374;-0.176;2024-03-06T01:39:24;101544.19;;;7.41;53.45
82668;BME280;72691;51.374;-0.176;2024-03-06T01:41:51;101547.43;;;7.16;54.35
82668;BME280;72691;51.374;-0.176;2024-03-06T01:44:16;101547.53;;;6.99;53.09
82668;BME280;72691;51.374;-0.176;2024-03-06T01:46:40;101545.92;;;6.22;53.90
82668;BME280;72691;51.374;-0.176;2024-03-06T01:49:08;101548.64;;;7.77;52.14
82668;BME280;72691;51.374;-0.176;2024-03-06T01:51:31;101549.74;;;7.97;52.10
82668;BME280;72691;51.374;-0.176;2024-03-06T01:53:57;101544.86;;;7.62;53.04
82668;BME280;72691;51.374;-0.176;2024-03-06T01:56:22;101549.97;;;7.12;53.84
82668;BME280;72691;51.374;-0.176;2024-03-06T01:58:48;101557.00;;;4.88;59.08
82668;BME280;72691;51.374;-0.176;2024-03-06T02:01:16;101563.17;;;3.06;64.30
82668;BME280;72691;51.374;-0.176;2024-03-06T02:03:39;101550.46;;;6.59;56.45
82668;BME280;72691;51.374;-0.176;2024-03-06T02:06:05;101554.14;;;6.13;57.47
82668;BME280;72691;51.374;-0.176;2024-03-06T02:08:30;101554.66;;;6.01;57.24
82668;BME280;72691;51.374;-0.176;2024-03-06T02:10:55;101557.01;;;5.62;57.24
82668;BME280;72691;51.374;-0.176;2024-03-06T02:13:20;101560.26;;;5.61;58.48
82668;BME280;72691;51.374;-0.176;2024-03-06T02:15:45;101560.88;;;6.11;58.41
82668;BME280;72691;51.374;-0.176;2024-03-06T02:18:10;101559.35;;;5.66;58.39
82668;BME280;72691;51.374;-0.176;2024-03-06T02:20:38;101567.75;;;4.19;61.94
82668;BME280;72691;51.374;-0.176;2024-03-06T02:23:01;101565.50;;;4.65;60.96
82668;BME280;72691;51.374;-0.176;2024-03-06T02:25:26;101563.22;;;4.07;63.12
82668;BME280;72691;51.374;-0.176;2024-03-06T02:27:51;101563.63;;;4.54;62.39
82668;BME280;72691;51.374;-0.176;2024-03-06T02:30:19;101564.83;;;5.22;60.78
82668;BME280;72691;51.374;-0.176;2024-03-06T02:32:42;101565.30;;;4.87;61.26
82668;BME280;72691;51.374;-0.176;2024-03-06T02:35:08;101566.51;;;5.23;61.39
82668;BME280;72691;51.374;-0.176;2024-03-06T02:37:33;101566.38;;;5.67;59.26
82668;BME280;72691;51.374;-0.176;2024-03-06T02:39:59;101566.17;;;4.98;59.51
82668;BME280;72691;51.374;-0.176;2024-03-06T02:42:24;101560.95;;;5.30;59.45
82668;BME280;72691;51.374;-0.176;2024-03-06T02:44:49;101555.93;;;5.92;57.54
82668;BME280;72691;51.374;-0.176;2024-03-06T02:47:15;101550.42;;;6.97;54.80
82668;BME280;72691;51.374;-0.176;2024-03-06T02:49:40;101555.19;;;5.94;56.36
82668;BME280;72691;51.374;-0.176;2024-03-06T02:52:05;101557.44;;;5.77;56.35
82668;BME280;72691;51.374;-0.176;2024-03-06T02:54:31;101558.80;;;4.84;58.22
82668;BME280;72691;51.374;-0.176;2024-03-06T02:56:56;101558.52;;;2.94;62.72
82668;BME280;72691;51.374;-0.176;2024-03-06T02:59:21;101551.94;;;4.76;58.95
82668;BME280;72691;51.374;-0.176;2024-03-06T03:01:46;101548.56;;;5.19;57.16
82668;BME280;72691;51.374;-0.176;2024-03-06T03:04:11;101547.97;;;5.15;55.88
82668;BME280;72691;51.374;-0.176;2024-03-06T03:06:37;101549.95;;;5.65;55.16
82668;BME280;72691;51.374;-0.176;2024-03-06T03:09:02;101550.50;;;6.09;54.77
82668;BME280;72691;51.374;-0.176;2024-03-06T03:11:28;101555.06;;;4.96;58.11
82668;BME280;72691;51.374;-0.176;2024-03-06T03:13:53;101556.08;;;4.32;59.56
82668;BME280;72691;51.374;-0.176;2024-03-06T03:16:19;101548.88;;;6.42;55.67
82668;BME280;72691;51.374;-0.176;2024-03-06T03:18:44;101550.62;;;5.62;57.98
82668;BME280;72691;51.374;-0.176;2024-03-06T03:21:10;101552.28;;;6.48;55.36
82668;BME280;72691;51.374;-0.176;2024-03-06T03:23:36;101557.61;;;5.80;58.04
82668;BME280;72691;51.374;-0.176;2024-03-06T03:26:01;101550.48;;;6.55;55.75
82668;BME280;72691;51.374;-0.176;2024-03-06T03:28:27;101545.82;;;6.82;54.95
82668;BME280;72691;51.374;-0.176;2024-03-06T03:30:52;101546.09;;;5.88;57.40
82668;BME280;72691;51.374;-0.176;2024-03-06T03:33:17;101546.97;;;6.33;56.53
82668;BME280;72691;51.374;-0.176;2024-03-06T03:35:43;101546.86;;;6.64;56.01
82668;BME280;72691;51.374;-0.176;2024-03-06T03:38:08;101547.92;;;7.27;54.96
82668;BME280;72691;51.374;-0.176;2024-03-06T03:40:33;101553.63;;;5.78;58.34
82668;BME280;72691;51.374;-0.176;2024-03-06T03:42:59;101557.37;;;4.26;61.80
82668;BME280;72691;51.374;-0.176;2024-03-06T03:45:24;101551.55;;;5.83;59.06
82668;BME280;72691;51.374;-0.176;2024-03-06T03:47:50;101551.36;;;5.55;60.76
82668;BME280;72691;51.374;-0.176;2024-03-06T03:50:16;101555.77;;;5.64;59.11
82668;BME280;72691;51.374;-0.176;2024-03-06T03:52:41;101556.65;;;5.53;59.52
82668;BME280;72691;51.374;-0.176;2024-03-06T03:55:07;101555.54;;;5.60;59.84
82668;BME280;72691;51.374;-0.176;2024-03-06T03:57:32;101554.92;;;5.71;59.60
82668;BME280;72691;51.374;-0.176;2024-03-06T03:59:57;101551.80;;;5.89;59.90
82668;BME280;72691;51.374;-0.176;2024-03-06T04:02:23;101555.00;;;5.44;60.73
82668;BME280;72691;51.374;-0.176;2024-03-06T04:04:49;101555.81;;;5.46;60.99
82668;BME280;72691;51.374;-0.176;2024-03-06T04:07:14;101558.30;;;5.62;60.15
82668;BME280;72691;51.374;-0.176;2024-03-06T04:09:39;101561.24;;;5.52;61.48
82668;BME280;72691;51.374;-0.176;2024-03-06T04:12:05;101562.77;;;5.27;61.61
82668;BME280;72691;51.374;-0.176;2024-03-06T04:14:30;101562.52;;;5.97;60.56
82668;BME280;72691;51.374;-0.176;2024-03-06T04:16:55;101568.05;;;4.86;63.43
82668;BME280;72691;51.374;-0.176;2024-03-06T04:19:21;101562.24;;;5.52;60.65
82668;BME280;72691;51.374;-0.176;2024-03-06T04:21:46;101562.51;;;6.12;59.56
82668;BME280;72691;51.374;-0.176;2024-03-06T04:24:11;101567.80;;;5.61;60.59
82668;BME280;72691;51.374;-0.176;2024-03-06T04:26:37;101567.25;;;6.32;58.92
82668;BME280;72691;51.374;-0.176;2024-03-06T04:29:02;101566.11;;;6.92;57.35
82668;BME280;72691;51.374;-0.176;2024-03-06T04:31:27;101568.13;;;6.86;56.57
82668;BME280;72691;51.374;-0.176;2024-03-06T04:33:53;101567.52;;;7.15;57.16
82668;BME280;72691;51.374;-0.176;2024-03-06T04:36:18;101569.71;;;7.76;54.90
82668;BME280;72691;51.374;-0.176;2024-03-06T04:38:44;101574.23;;;7.83;53.92
82668;BME280;72691;51.374;-0.176;2024-03-06T04:41:09;101578.65;;;8.11;53.54
82668;BME280;72691;51.374;-0.176;2024-03-06T04:43:34;101581.79;;;8.18;52.75
82668;BME280;72691;51.374;-0.176;2024-03-06T04:46:00;101588.37;;;7.86;53.93
82668;BME280;72691;51.374;-0.176;2024-03-06T04:48:24;101590.98;;;8.38;53.34
82668;BME280;72691;51.374;-0.176;2024-03-06T04:50:50;101596.51;;;8.58;52.30
82668;BME280;72691;51.374;-0.176;2024-03-06T04:53:15;101598.26;;;7.88;53.68
82668;BME280;72691;51.374;-0.176;2024-03-06T04:55:40;101601.99;;;6.03;57.68
82668;BME280;72691;51.374;-0.176;2024-03-06T04:58:07;101608.02;;;5.57;59.21
82668;BME280;72691;51.374;-0.176;2024-03-06T05:00:31;101610.91;;;5.03;61.13
82668;BME280;72691;51.374;-0.176;2024-03-06T05:02:57;101617.76;;;4.33;64.04
82668;BME280;72691;51.374;-0.176;2024-03-06T05:05:23;101615.48;;;5.73;62.06
82668;BME280;72691;51.374;-0.176;2024-03-06T05:07:48;101609.70;;;7.44;55.74
82668;BME280;72691;51.374;-0.176;2024-03-06T05:10:13;101612.48;;;6.79;58.60
82668;BME280;72691;51.374;-0.176;2024-03-06T05:12:38;101614.86;;;6.63;58.28
82668;BME280;72691;51.374;-0.176;2024-03-06T05:15:05;101613.66;;;7.54;54.83
82668;BME280;72691;51.374;-0.176;2024-03-06T05:17:31;101619.16;;;8.32;53.85
82668;BME280;72691;51.374;-0.176;2024-03-06T05:19:55;101622.35;;;6.95;56.99
82668;BME280;72691;51.374;-0.176;2024-03-06T05:22:22;101626.23;;;7.44;55.77
82668;BME280;72691;51.374;-0.176;2024-03-06T05:24:47;101624.67;;;7.01;55.08
82668;BME280;72691;51.374;-0.176;2024-03-06T05:27:12;101624.32;;;7.51;55.64
82668;BME280;72691;51.374;-0.176;2024-03-06T05:29:38;101623.23;;;7.46;55.88
82668;BME280;72691;51.374;-0.176;2024-03-06T05:32:03;101625.68;;;5.93;59.64
82668;BME280;72691;51.374;-0.176;2024-03-06T05:34:29;101628.86;;;6.54;59.26
82668;BME280;72691;51.374;-0.176;2024-03-06T05:36:54;101630.00;;;6.50;58.34
82668;BME280;72691;51.374;-0.176;2024-03-06T05:39:20;101638.16;;;6.67;58.74
82668;BME280;72691;51.374;-0.176;2024-03-06T05:41:45;101641.42;;;6.77;58.01
82668;BME280;72691;51.374;-0.176;2024-03-06T05:44:10;101640.24;;;7.56;56.33
82668;BME280;72691;51.374;-0.176;2024-03-06T05:46:36;101639.97;;;7.13;58.02
82668;BME280;72691;51.374;-0.176;2024-03-06T05:49:02;101646.86;;;5.36;61.57
82668;BME280;72691;51.374;-0.176;2024-03-06T05:51:27;101645.67;;;6.82;57.84
82668;BME280;72691;51.374;-0.176;2024-03-06T05:53:53;101638.46;;;8.42;55.01
82668;BME280;72691;51.374;-0.176;2024-03-06T05:56:18;101641.43;;;8.72;53.00
82668;BME280;72691;51.374;-0.176;2024-03-06T05:58:44;101641.44;;;9.04;51.75
82668;BME280;72691;51.374;-0.176;2024-03-06T06:01:09;101646.99;;;7.04;56.54
82668;BME280;72691;51.374;-0.176;2024-03-06T06:03:34;101650.04;;;6.23;60.24
82668;BME280;72691;51.374;-0.176;2024-03-06T06:06:00;101647.58;;;6.48;59.67
82668;BME280;72691;51.374;-0.176;2024-03-06T06:08:25;101652.90;;;5.97;60.04
82668;BME280;72691;51.374;-0.176;2024-03-06T06:10:50;101649.23;;;7.70;56.61
82668;BME280;72691;51.374;-0.176;2024-03-06T06:13:16;101650.56;;;8.41;54.64
82668;BME280;72691;51.374;-0.176;2024-03-06T06:15:42;101652.37;;;7.20;56.34
82668;BME280;72691;51.374;-0.176;2024-03-06T06:18:07;101657.68;;;7.18;56.90
82668;BME280;72691;51.374;-0.176;2024-03-06T06:20:32;101658.57;;;7.62;55.29
82668;BME280;72691;51.374;-0.176;2024-03-06T06:22:58;101658.57;;;6.47;58.26
82668;BME280;72691;51.374;-0.176;2024-03-06T06:25:23;101661.94;;;6.23;59.48
82668;BME280;72691;51.374;-0.176;2024-03-06T06:27:49;101669.61;;;5.58;60.85
82668;BME280;72691;51.374;-0.176;2024-03-06T06:30:14;101674.15;;;6.14;60.40
82668;BME280;72691;51.374;-0.176;2024-03-06T06:32:40;101669.96;;;8.75;54.43
82668;BME280;72691;51.374;-0.176;2024-03-06T06:35:07;101668.80;;;9.36;52.31
82668;BME280;72691;51.374;-0.176;2024-03-06T06:37:32;101669.64;;;9.65;50.82
82668;BME280;72691;51.374;-0.176;2024-03-06T06:39:57;101669.90;;;9.06;52.07
82668;BME280;72691;51.374;-0.176;2024-03-06T06:42:22;101676.55;;;7.31;54.92
82668;BME280;72691;51.374;-0.176;2024-03-06T06:44:48;101677.02;;;7.90;55.86
82668;BME280;72691;51.374;-0.176;2024-03-06T06:47:14;101678.81;;;8.23;54.04
82668;BME280;72691;51.374;-0.176;2024-03-06T06:49:39;101681.44;;;8.43;53.08
82668;BME280;72691;51.374;-0.176;2024-03-06T06:52:05;101682.94;;;8.00;54.20
82668;BME280;72691;51.374;-0.176;2024-03-06T06:54:31;101681.82;;;8.45;53.22
82668;BME280;72691;51.374;-0.176;2024-03-06T06:56:56;101683.13;;;8.87;51.86
82668;BME280;72691;51.374;-0.176;2024-03-06T06:59:22;101685.21;;;8.19;53.60
82668;BME280;72691;51.374;-0.176;2024-03-06T07:01:48;101689.87;;;8.55;52.86
82668;BME280;72691;51.374;-0.176;2024-03-06T07:04:14;101689.82;;;9.90;50.05
82668;BME280;72691;51.374;-0.176;2024-03-06T07:06:38;101695.80;;;10.09;49.24
82668;BME280;72691;51.374;-0.176;2024-03-06T07:09:04;101697.65;;;8.17;53.11
82668;BME280;72691;51.374;-0.176;2024-03-06T07:11:29;101700.76;;;6.71;56.93
82668;BME280;72691;51.374;-0.176;2024-03-06T07:13:55;101703.47;;;7.58;55.21
82668;BME280;72691;51.374;-0.176;2024-03-06T07:16:20;101704.21;;;8.55;53.06
82668;BME280;72691;51.374;-0.176;2024-03-06T07:18:46;101707.87;;;8.52;52.98
82668;BME280;72691;51.374;-0.176;2024-03-06T07:21:11;101717.36;;;6.15;60.23
82668;BME280;72691;51.374;-0.176;2024-03-06T07:23:37;101716.13;;;6.93;57.78
82668;BME280;72691;51.374;-0.176;2024-03-06T07:26:03;101722.26;;;7.26;56.45
82668;BME280;72691;51.374;-0.176;2024-03-06T07:28:28;101721.79;;;7.09;56.79
82668;BME280;72691;51.374;-0.176;2024-03-06T07:30:54;101725.87;;;6.13;59.71
82668;BME280;72691;51.374;-0.176;2024-03-06T07:33:20;101725.57;;;7.51;58.29
82668;BME280;72691;51.374;-0.176;2024-03-06T07:35:45;101722.06;;;8.76;53.41
82668;BME280;72691;51.374;-0.176;2024-03-06T07:38:11;101724.06;;;9.04;52.59
82668;BME280;72691;51.374;-0.176;2024-03-06T07:40:37;101732.56;;;6.33;59.56
82668;BME280;72691;51.374;-0.176;2024-03-06T07:43:03;101738.94;;;5.04;64.95
82668;BME280;72691;51.374;-0.176;2024-03-06T07:45:28;101739.79;;;5.38;64.67
82668;BME280;72691;51.374;-0.176;2024-03-06T07:47:53;101740.17;;;5.68;65.01
82668;BME280;72691;51.374;-0.176;2024-03-06T07:50:18;101743.10;;;4.88;66.46
82668;BME280;72691;51.374;-0.176;2024-03-06T07:52:43;101746.27;;;4.28;69.92
82668;BME280;72691;51.374;-0.176;2024-03-06T07:55:08;101742.48;;;4.88;66.89
82668;BME280;72691;51.374;-0.176;2024-03-06T07:57:34;101741.66;;;5.46;65.49
82668;BME280;72691;51.374;-0.176;2024-03-06T07:59:59;101738.51;;;5.93;63.17
82668;BME280;72691;51.374;-0.176;2024-03-06T08:02:24;101734.06;;;7.85;57.41
82668;BME280;72691;51.374;-0.176;2024-03-06T08:04:50;101746.98;;;5.38;63.40
82668;BME280;72691;51.374;-0.176;2024-03-06T08:07:15;101749.94;;;6.88;62.49
82668;BME280;72691;51.374;-0.176;2024-03-06T08:09:41;101757.78;;;4.69;67.84
82668;BME280;72691;51.374;-0.176;2024-03-06T08:12:06;101757.03;;;5.64;64.52
82668;BME280;72691;51.374;-0.176;2024-03-06T08:14:31;101757.75;;;5.24;66.80
82668;BME280;72691;51.374;-0.176;2024-03-06T08:16:57;101753.71;;;6.17;63.50
82668;BME280;72691;51.374;-0.176;2024-03-06T08:19:22;101751.25;;;7.06;60.67
82668;BME280;72691;51.374;-0.176;2024-03-06T08:21:47;101764.73;;;5.07;68.58
82668;BME280;72691;51.374;-0.176;2024-03-06T08:24:12;101755.55;;;6.52;63.22
82668;BME280;72691;51.374;-0.176;2024-03-06T08:26:37;101757.02;;;7.20;60.55
82668;BME280;72691;51.374;-0.176;2024-03-06T08:29:03;101762.23;;;6.40;62.32
82668;BME280;72691;51.374;-0.176;2024-03-06T08:31:28;101772.20;;;3.87;69.88
82668;BME280;72691;51.374;-0.176;2024-03-06T08:33:53;101771.65;;;6.03;65.35
82668;BME280;72691;51.374;-0.176;2024-03-06T08:36:19;101765.65;;;8.24;58.76
82668;BME280;72691;51.374;-0.176;2024-03-06T08:38:44;101768.67;;;9.18;55.94
82668;BME280;72691;51.374;-0.176;2024-03-06T08:41:09;101776.17;;;6.95;60.00
82668;BME280;72691;51.374;-0.176;2024-03-06T08:43:35;101785.31;;;6.22;63.30
82668;BME280;72691;51.374;-0.176;2024-03-06T08:46:00;101780.35;;;7.63;60.79
82668;BME280;72691;51.374;-0.176;2024-03-06T08:48:25;101780.92;;;7.46;59.73
82668;BME280;72691;51.374;-0.176;2024-03-06T08:50:51;101778.20;;;9.17;55.86
82668;BME280;72691;51.374;-0.176;2024-03-06T08:53:16;101777.36;;;9.26;55.87
82668;BME280;72691;51.374;-0.176;2024-03-06T08:55:42;101779.49;;;8.94;55.30
82668;BME280;72691;51.374;-0.176;2024-03-06T08:58:08;101781.40;;;9.21;54.90
82668;BME280;72691;51.374;-0.176;2024-03-06T09:00:34;101779.43;;;10.06;53.40
82668;BME280;72691;51.374;-0.176;2024-03-06T09:02:58;101780.81;;;8.65;56.19
82668;BME280;72691;51.374;-0.176;2024-03-06T09:05:23;101777.79;;;8.77;54.93
82668;BME280;72691;51.374;-0.176;2024-03-06T09:07:49;101779.44;;;10.40;53.36
82668;BME280;72691;51.374;-0.176;2024-03-06T09:10:15;101786.33;;;6.92;60.40
82668;BME280;72691;51.374;-0.176;2024-03-06T09:12:40;101786.32;;;7.44;60.41
82668;BME280;72691;51.374;-0.176;2024-03-06T09:15:06;101786.74;;;9.42;55.98
82668;BME280;72691;51.374;-0.176;2024-03-06T09:17:30;101789.43;;;9.89;55.00
82668;BME280;72691;51.374;-0.176;2024-03-06T09:19:56;101796.14;;;7.56;60.04
82668;BME280;72691;51.374;-0.176;2024-03-06T09:22:21;101790.82;;;10.01;54.51
82668;BME280;72691;51.374;-0.176;2024-03-06T09:24:47;101797.82;;;8.99;55.88
82668;BME280;72691;51.374;-0.176;2024-03-06T09:27:13;101797.89;;;9.35;56.15
82668;BME280;72691;51.374;-0.176;2024-03-06T09:29:38;101799.29;;;10.31;53.77
82668;BME280;72691;51.374;-0.176;2024-03-06T09:32:04;101800.00;;;10.05;54.21
82668;BME280;72691;51.374;-0.176;2024-03-06T09:34:29;101799.48;;;8.24;57.50
82668;BME280;72691;51.374;-0.176;2024-03-06T09:36:55;101799.96;;;8.17;56.91
82668;BME280;72691;51.374;-0.176;2024-03-06T09:39:21;101802.58;;;10.16;53.76
82668;BME280;72691;51.374;-0.176;2024-03-06T09:41:46;101804.39;;;10.14;54.12
82668;BME280;72691;51.374;-0.176;2024-03-06T09:44:12;101805.58;;;10.76;52.61
82668;BME280;72691;51.374;-0.176;2024-03-06T09:46:37;101808.71;;;9.41;54.70
82668;BME280;72691;51.374;-0.176;2024-03-06T09:49:03;101808.27;;;9.99;53.62
82668;BME280;72691;51.374;-0.176;2024-03-06T09:51:28;101809.23;;;10.79;53.10
82668;BME280;72691;51.374;-0.176;2024-03-06T09:53:54;101806.94;;;10.84;51.87
82668;BME280;72691;51.374;-0.176;2024-03-06T09:56:19;101817.22;;;8.69;57.09
82668;BME280;72691;51.374;-0.176;2024-03-06T09:58:44;101817.58;;;9.49;54.76
82668;BME280;72691;51.374;-0.176;2024-03-06T10:01:10;101818.65;;;9.56;54.32
82668;BME280;72691;51.374;-0.176;2024-03-06T10:03:36;101819.23;;;8.53;55.97
82668;BME280;72691;51.374;-0.176;2024-03-06T10:06:01;101821.35;;;10.26;55.10
82668;BME280;72691;51.374;-0.176;2024-03-06T10:08:26;101817.97;;;10.95;53.24
82668;BME280;72691;51.374;-0.176;2024-03-06T10:10:52;101820.32;;;9.49;55.11
82668;BME280;72691;51.374;-0.176;2024-03-06T10:13:17;101818.81;;;11.26;53.26
82668;BME280;72691;51.374;-0.176;2024-03-06T10:18:13;101814.72;;;11.47;50.72
82668;BME280;72691;51.374;-0.176;2024-03-06T10:20:35;101825.50;;;9.20;57.07
82668;BME280;72691;51.374;-0.176;2024-03-06T10:22:59;101824.69;;;10.21;54.95
82668;BME280;72691;51.374;-0.176;2024-03-06T10:25:24;101823.47;;;10.43;53.75
82668;BME280;72691;51.374;-0.176;2024-03-06T10:28:04;101818.26;;;10.74;52.46
82668;BME280;72691;51.374;-0.176;2024-03-06T10:30:17;101816.79;;;12.16;50.70
82668;BME280;72691;51.374;-0.176;2024-03-06T10:32:42;101816.14;;;11.43;48.90
82668;BME280;72691;51.374;-0.176;2024-03-06T10:35:07;101819.52;;;10.56;53.03
82668;BME280;72691;51.374;-0.176;2024-03-06T10:37:31;101821.58;;;10.74;52.78
82668;BME280;72691;51.374;-0.176;2024-03-06T10:39:58;101822.24;;;9.66;52.53
82668;BME280;72691;51.374;-0.176;2024-03-06T10:42:24;101822.44;;;9.27;53.52
82668;BME280;72691;51.374;-0.176;2024-03-06T10:44:52;101813.37;;;12.09;48.14
82668;BME280;72691;51.374;-0.176;2024-03-06T10:47:15;101819.16;;;10.06;55.31
82668;BME280;72691;51.374;-0.176;2024-03-06T10:49:40;101824.58;;;8.67;58.72
82668;BME280;72691;51.374;-0.176;2024-03-06T10:52:05;101818.30;;;11.98;48.93
82668;BME280;72691;51.374;-0.176;2024-03-06T10:54:30;101820.21;;;11.60;49.03
82668;BME280;72691;51.374;-0.176;2024-03-06T10:56:55;101814.85;;;13.59;45.00
82668;BME280;72691;51.374;-0.176;2024-03-06T10:59:21;101814.83;;;13.72;44.60
82668;BME280;72691;51.374;-0.176;2024-03-06T11:01:47;101821.55;;;12.70;46.40
82668;BME280;72691;51.374;-0.176;2024-03-06T11:04:13;101824.66;;;11.23;48.71
82668;BME280;72691;51.374;-0.176;2024-03-06T11:06:37;101821.08;;;12.62;46.14
82668;BME280;72691;51.374;-0.176;2024-03-06T11:09:02;101823.61;;;11.61;46.00
82668;BME280;72691;51.374;-0.176;2024-03-06T11:11:28;101822.93;;;14.32;45.34
82668;BME280;72691;51.374;-0.176;2024-03-06T11:13:55;101818.02;;;13.96;43.46
82668;BME280;72691;51.374;-0.176;2024-03-06T11:16:23;101818.68;;;14.50;41.32
82668;BME280;72691;51.374;-0.176;2024-03-06T11:18:44;101818.74;;;14.32;42.07
82668;BME280;72691;51.374;-0.176;2024-03-06T11:23:35;101818.11;;;14.45;42.14
82668;BME280;72691;51.374;-0.176;2024-03-06T11:26:02;101816.02;;;13.41;44.34
82668;BME280;72691;51.374;-0.176;2024-03-06T11:28:26;101817.61;;;13.13;44.42
82668;BME280;72691;51.374;-0.176;2024-03-06T11:30:55;101824.86;;;10.67;49.17
82668;BME280;72691;51.374;-0.176;2024-03-06T11:33:22;101818.22;;;13.25;43.03
82668;BME280;72691;51.374;-0.176;2024-03-06T11:35:42;101817.83;;;15.69;40.57
82668;BME280;72691;51.374;-0.176;2024-03-06T11:38:09;101817.29;;;14.96;42.47
82668;BME280;72691;51.374;-0.176;2024-03-06T11:40:42;101819.90;;;14.34;40.79
82668;BME280;72691;51.374;-0.176;2024-03-06T11:45:25;101827.10;;;11.03;46.83
82668;BME280;72691;51.374;-0.176;2024-03-06T11:47:57;101835.80;;;8.36;51.55
82668;BME280;72691;51.374;-0.176;2024-03-06T11:50:15;101835.68;;;9.67;48.88
82668;BME280;72691;51.374;-0.176;2024-03-06T11:52:41;101823.03;;;12.80;43.81
82668;BME280;72691;51.374;-0.176;2024-03-06T11:55:07;101822.51;;;13.99;44.09
82668;BME280;72691;51.374;-0.176;2024-03-06T11:57:34;101820.48;;;13.29;42.71
82668;BME280;72691;51.374;-0.176;2024-03-06T12:00:02;101817.95;;;12.25;41.72
82668;BME280;72691;51.374;-0.176;2024-03-06T12:02:22;101819.90;;;12.87;40.65
82668;BME280;72691;51.374;-0.176;2024-03-06T12:04:48;101820.82;;;13.21;40.57
82668;BME280;72691;51.374;-0.176;2024-03-06T12:07:13;101821.75;;;12.70;40.51
82668;BME280;72691;51.374;-0.176;2024-03-06T12:09:39;101821.00;;;13.54;41.16
82668;BME280;72691;51.374;-0.176;2024-03-06T12:12:06;101821.65;;;13.69;41.03
82668;BME280;72691;51.374;-0.176;2024-03-06T12:14:31;101820.71;;;14.75;38.68
82668;BME280;72691;51.374;-0.176;2024-03-06T12:16:55;101818.76;;;14.60;40.78
82668;BME280;72691;51.374;-0.176;2024-03-06T12:19:21;101821.26;;;13.72;42.05
82668;BME280;72691;51.374;-0.176;2024-03-06T12:21:47;101820.59;;;13.69;40.42
82668;BME280;72691;51.374;-0.176;2024-03-06T12:24:11;101821.67;;;11.91;43.14
82668;BME280;72691;51.374;-0.176;2024-03-06T12:26:37;101821.56;;;11.61;44.77
82668;BME280;72691;51.374;-0.176;2024-03-06T12:29:05;101820.08;;;11.18;46.36
82668;BME280;72691;51.374;-0.176;2024-03-06T12:31:28;101817.27;;;12.95;41.78
82668;BME280;72691;51.374;-0.176;2024-03-06T12:33:57;101819.43;;;11.48;45.10
82668;BME280;72691;51.374;-0.176;2024-03-06T12:36:24;101819.01;;;10.54;47.53
82668;BME280;72691;51.374;-0.176;2024-03-06T12:38:44;101813.70;;;12.36;43.31
82668;BME280;72691;51.374;-0.176;2024-03-06T12:41:10;101816.62;;;11.69;43.68
82668;BME280;72691;51.374;-0.176;2024-03-06T12:43:35;101814.69;;;13.13;40.30